sensor_id;sensor_type;location;lat;lon;timestamp;P1;durP1;ratioP1;P2;durP2;ratioP2
46355;SDS011;32066;49.474;11.106;2022-12-11T00:01:48;33.10;;;19.00;;
46355;SDS011;32066;49.474;11.106;2022-12-11T00:04:15;29.33;;;17.35;;
46355;SDS011;32066;49.474;11.106;2022-12-11T00:06:42;30.25;;;17.30;;
46355;SDS011;32066;49.474;11.106;2022-12-11T00:09:10;30.83;;;17.38;;
46355;SDS011;32066;49.474;11.106;2022-12-11T00:11:37;27.90;;;16.92;;
46355;SDS011;32066;49.474;11.106;2022-12-11T00:14:04;27.05;;;16.20;;
46355;SDS011;32066;49.474;11.106;2022-12-11T00:16:31;18.33;;;10.68;;
46355;SDS011;32066;49.474;11.106;2022-12-11T00:18:58;42.42;;;19.67;;
46355;SDS011;32066;49.474;11.106;2022-12-11T00:21:25;50.03;;;24.15;;
46355;SDS011;32066;49.474;11.106;2022-12-11T00:23:52;42.80;;;24.70;;
46355;SDS011;32066;49.474;11.106;2022-12-11T00:26:20;33.58;;;19.63;;
46355;SDS011;32066;49.474;11.106;2022-12-11T00:28:50;32.33;;;18.10;;
46355;SDS011;32066;49.474;11.106;2022-12-11T00:31:18;29.60;;;17.50;;
46355;SDS011;32066;49.474;11.106;2022-12-11T00:33:46;25.08;;;15.05;;
46355;SDS011;32066;49.474;11.106;2022-12-11T00:36:15;24.58;;;14.80;;
46355;SDS011;32066;49.474;11.106;2022-12-11T00:38:43;25.30;;;15.98;;
46355;SDS011;32066;49.474;11.106;2022-12-11T00:41:10;23.70;;;15.02;;
46355;SDS011;32066;49.474;11.106;2022-12-11T00:43:39;24.50;;;15.02;;
46355;SDS011;32066;49.474;11.106;2022-12-11T00:46:06;25.27;;;15.18;;
46355;SDS011;32066;49.474;11.106;2022-12-11T00:48:33;23.17;;;14.43;;
46355;SDS011;32066;49.474;11.106;2022-12-11T00:51:00;25.13;;;15.48;;
46355;SDS011;32066;49.474;11.106;2022-12-11T00:53:26;26.30;;;15.60;;
46355;SDS011;32066;49.474;11.106;2022-12-11T00:55:53;23.20;;;14.32;;
46355;SDS011;32066;49.474;11.106;2022-12-11T00:58:20;25.10;;;15.23;;
46355;SDS011;32066;49.474;11.106;2022-12-11T01:00:48;23.33;;;14.73;;
46355;SDS011;32066;49.474;11.106;2022-12-11T01:03:15;25.20;;;15.23;;
46355;SDS011;32066;49.474;11.106;2022-12-11T01:05:49;25.13;;;15.30;;
46355;SDS011;32066;49.474;11.106;2022-12-11T01:08:18;22.73;;;14.03;;
46355;SDS011;32066;49.474;11.106;2022-12-11T01:10:44;24.05;;;14.65;;
46355;SDS011;32066;49.474;11.106;2022-12-11T01:13:11;26.52;;;15.35;;
46355;SDS011;32066;49.474;11.106;2022-12-11T01:15:39;28.52;;;16.40;;
46355;SDS011;32066;49.474;11.106;2022-12-11T01:18:08;26.38;;;15.57;;
46355;SDS011;32066;49.474;11.106;2022-12-11T01:20:36;28.08;;;14.90;;
46355;SDS011;32066;49.474;11.106;2022-12-11T01:23:04;27.67;;;15.75;;
46355;SDS011;32066;49.474;11.106;2022-12-11T01:25:31;24.83;;;15.63;;
46355;SDS011;32066;49.474;11.106;2022-12-11T01:28:02;24.77;;;15.50;;
46355;SDS011;32066;49.474;11.106;2022-12-11T01:30:30;24.45;;;15.20;;
46355;SDS011;32066;49.474;11.106;2022-12-11T01:32:57;25.10;;;15.20;;
46355;SDS011;32066;49.474;11.106;2022-12-11T01:35:26;26.73;;;16.17;;
46355;SDS011;32066;49.474;11.106;2022-12-11T01:37:53;25.63;;;16.25;;
46355;SDS011;32066;49.474;11.106;2022-12-11T01:40:20;26.45;;;15.88;;
46355;SDS011;32066;49.474;11.106;2022-12-11T01:42:48;27.08;;;15.80;;
46355;SDS011;32066;49.474;11.106;2022-12-11T01:45:26;24.77;;;14.68;;
46355;SDS011;32066;49.474;11.106;2022-12-11T01:48:11;27.53;;;16.77;;
46355;SDS011;32066;49.474;11.106;2022-12-11T01:50:43;22.67;;;14.70;;
46355;SDS011;32066;49.474;11.106;2022-12-11T01:53:14;25.92;;;15.88;;
46355;SDS011;32066;49.474;11.106;2022-12-11T01:55:45;25.13;;;15.40;;
46355;SDS011;32066;49.474;11.106;2022-12-11T01:58:13;26.63;;;16.40;;
46355;SDS011;32066;49.474;11.106;2022-12-11T02:00:43;26.17;;;15.82;;
46355;SDS011;32066;49.474;11.106;2022-12-11T02:03:10;23.08;;;14.48;;
46355;SDS011;32066;49.474;11.106;2022-12-11T02:05:37;24.02;;;14.35;;
46355;SDS011;32066;49.474;11.106;2022-12-11T02:08:05;25.33;;;15.50;;
46355;SDS011;32066;49.474;11.106;2022-12-11T02:10:40;23.92;;;14.32;;
46355;SDS011;32066;49.474;11.106;2022-12-11T02:13:17;24.52;;;15.68;;
46355;SDS011;32066;49.474;11.106;2022-12-11T02:15:47;24.42;;;15.38;;
46355;SDS011;32066;49.474;11.106;2022-12-11T02:18:19;26.45;;;15.90;;
46355;SDS011;32066;49.474;11.106;2022-12-11T02:20:53;25.40;;;15.40;;
46355;SDS011;32066;49.474;11.106;2022-12-11T02:23:41;26.48;;;16.08;;
46355;SDS011;32066;49.474;11.106;2022-12-11T02:26:24;23.48;;;14.73;;
46355;SDS011;32066;49.474;11.106;2022-12-11T02:29:03;23.63;;;14.68;;
46355;SDS011;32066;49.474;11.106;2022-12-11T02:31:34;25.10;;;15.68;;
46355;SDS011;32066;49.474;11.106;2022-12-11T02:34:07;23.98;;;15.10;;
46355;SDS011;32066;49.474;11.106;2022-12-11T02:36:37;28.10;;;16.15;;
46355;SDS011;32066;49.474;11.106;2022-12-11T02:39:08;25.65;;;14.82;;
46355;SDS011;32066;49.474;11.106;2022-12-11T02:41:37;23.60;;;14.85;;
46355;SDS011;32066;49.474;11.106;2022-12-11T02:44:07;23.40;;;15.55;;
46355;SDS011;32066;49.474;11.106;2022-12-11T02:46:39;24.13;;;15.07;;
46355;SDS011;32066;49.474;11.106;2022-12-11T02:49:07;25.10;;;15.45;;
46355;SDS011;32066;49.474;11.106;2022-12-11T02:51:38;24.63;;;15.25;;
46355;SDS011;32066;49.474;11.106;2022-12-11T02:54:08;25.73;;;15.73;;
46355;SDS011;32066;49.474;11.106;2022-12-11T02:56:39;24.27;;;15.35;;
46355;SDS011;32066;49.474;11.106;2022-12-11T02:59:12;24.30;;;15.05;;
46355;SDS011;32066;49.474;11.106;2022-12-11T03:01:41;25.10;;;15.20;;
46355;SDS011;32066;49.474;11.106;2022-12-11T03:04:08;24.00;;;15.25;;
46355;SDS011;32066;49.474;11.106;2022-12-11T03:06:35;25.98;;;15.35;;
46355;SDS011;32066;49.474;11.106;2022-12-11T03:09:05;26.95;;;15.65;;
46355;SDS011;32066;49.474;11.106;2022-12-11T03:11:32;25.17;;;15.68;;
46355;SDS011;32066;49.474;11.106;2022-12-11T03:13:59;25.20;;;15.85;;
46355;SDS011;32066;49.474;11.106;2022-12-11T03:16:30;24.00;;;14.88;;
46355;SDS011;32066;49.474;11.106;2022-12-11T03:19:03;26.63;;;15.50;;
46355;SDS011;32066;49.474;11.106;2022-12-11T03:21:38;26.33;;;15.75;;
46355;SDS011;32066;49.474;11.106;2022-12-11T03:24:11;27.75;;;16.17;;
46355;SDS011;32066;49.474;11.106;2022-12-11T03:26:44;27.10;;;16.10;;
46355;SDS011;32066;49.474;11.106;2022-12-11T03:29:16;25.45;;;15.50;;
46355;SDS011;32066;49.474;11.106;2022-12-11T03:31:48;23.63;;;14.75;;
46355;SDS011;32066;49.474;11.106;2022-12-11T03:34:21;25.77;;;15.95;;
46355;SDS011;32066;49.474;11.106;2022-12-11T03:36:50;23.50;;;14.98;;
46355;SDS011;32066;49.474;11.106;2022-12-11T03:39:21;23.75;;;15.00;;
46355;SDS011;32066;49.474;11.106;2022-12-11T03:41:52;26.90;;;16.25;;
46355;SDS011;32066;49.474;11.106;2022-12-11T03:44:21;23.45;;;14.45;;
46355;SDS011;32066;49.474;11.106;2022-12-11T03:46:50;25.83;;;15.48;;
46355;SDS011;32066;49.474;11.106;2022-12-11T03:49:19;23.67;;;15.20;;
46355;SDS011;32066;49.474;11.106;2022-12-11T03:51:49;24.13;;;15.00;;
46355;SDS011;32066;49.474;11.106;2022-12-11T03:54:18;23.45;;;14.60;;
46355;SDS011;32066;49.474;11.106;2022-12-11T03:56:45;24.58;;;15.35;;
46355;SDS011;32066;49.474;11.106;2022-12-11T03:59:16;25.60;;;15.52;;
46355;SDS011;32066;49.474;11.106;2022-12-11T04:01:43;23.27;;;14.52;;
46355;SDS011;32066;49.474;11.106;2022-12-11T04:04:11;25.80;;;15.82;;
46355;SDS011;32066;49.474;11.106;2022-12-11T04:06:38;26.52;;;16.38;;
46355;SDS011;32066;49.474;11.106;2022-12-11T04:09:05;25.00;;;15.38;;
46355;SDS011;32066;49.474;11.106;2022-12-11T04:11:32;25.27;;;15.52;;
46355;SDS011;32066;49.474;11.106;2022-12-11T04:14:02;24.23;;;15.35;;
46355;SDS011;32066;49.474;11.106;2022-12-11T04:16:47;23.27;;;14.48;;
46355;SDS011;32066;49.474;11.106;2022-12-11T04:19:15;24.80;;;14.90;;
46355;SDS011;32066;49.474;11.106;2022-12-11T04:21:59;24.58;;;15.43;;
46355;SDS011;32066;49.474;11.106;2022-12-11T04:24:45;24.50;;;15.05;;
46355;SDS011;32066;49.474;11.106;2022-12-11T04:27:13;23.73;;;15.98;;
46355;SDS011;32066;49.474;11.106;2022-12-11T04:30:00;24.45;;;15.07;;
46355;SDS011;32066;49.474;11.106;2022-12-11T04:32:27;23.70;;;14.50;;
46355;SDS011;32066;49.474;11.106;2022-12-11T04:34:55;22.23;;;13.95;;
46355;SDS011;32066;49.474;11.106;2022-12-11T04:37:22;21.83;;;14.13;;
46355;SDS011;32066;49.474;11.106;2022-12-11T04:39:49;22.30;;;14.52;;
46355;SDS011;32066;49.474;11.106;2022-12-11T04:42:16;22.73;;;14.77;;
46355;SDS011;32066;49.474;11.106;2022-12-11T04:44:42;23.65;;;15.65;;
46355;SDS011;32066;49.474;11.106;2022-12-11T04:47:09;21.42;;;13.88;;
46355;SDS011;32066;49.474;11.106;2022-12-11T04:49:36;22.17;;;14.20;;
46355;SDS011;32066;49.474;11.106;2022-12-11T04:52:04;22.67;;;14.75;;
46355;SDS011;32066;49.474;11.106;2022-12-11T04:54:31;23.13;;;14.38;;
46355;SDS011;32066;49.474;11.106;2022-12-11T04:56:58;23.90;;;15.02;;
46355;SDS011;32066;49.474;11.106;2022-12-11T04:59:25;22.15;;;14.55;;
46355;SDS011;32066;49.474;11.106;2022-12-11T05:01:52;22.92;;;15.02;;
46355;SDS011;32066;49.474;11.106;2022-12-11T05:04:18;23.42;;;15.68;;
46355;SDS011;32066;49.474;11.106;2022-12-11T05:06:48;23.58;;;15.88;;
46355;SDS011;32066;49.474;11.106;2022-12-11T05:09:16;26.60;;;16.65;;
46355;SDS011;32066;49.474;11.106;2022-12-11T05:11:43;24.75;;;15.55;;
46355;SDS011;32066;49.474;11.106;2022-12-11T05:14:10;24.25;;;15.95;;
46355;SDS011;32066;49.474;11.106;2022-12-11T05:16:36;26.40;;;16.70;;
46355;SDS011;32066;49.474;11.106;2022-12-11T05:19:03;23.33;;;15.70;;
46355;SDS011;32066;49.474;11.106;2022-12-11T05:21:30;24.67;;;15.50;;
46355;SDS011;32066;49.474;11.106;2022-12-11T05:23:57;25.63;;;15.90;;
46355;SDS011;32066;49.474;11.106;2022-12-11T05:26:25;24.55;;;15.88;;
46355;SDS011;32066;49.474;11.106;2022-12-11T05:28:52;25.33;;;16.27;;
46355;SDS011;32066;49.474;11.106;2022-12-11T05:31:21;23.23;;;15.73;;
46355;SDS011;32066;49.474;11.106;2022-12-11T05:33:49;24.00;;;16.40;;
46355;SDS011;32066;49.474;11.106;2022-12-11T05:36:18;26.52;;;17.27;;
46355;SDS011;32066;49.474;11.106;2022-12-11T05:38:46;23.00;;;15.52;;
46355;SDS011;32066;49.474;11.106;2022-12-11T05:41:14;25.00;;;16.13;;
46355;SDS011;32066;49.474;11.106;2022-12-11T05:43:43;24.63;;;15.85;;
46355;SDS011;32066;49.474;11.106;2022-12-11T05:46:12;24.98;;;15.55;;
46355;SDS011;32066;49.474;11.106;2022-12-11T05:48:40;24.45;;;16.42;;
46355;SDS011;32066;49.474;11.106;2022-12-11T05:51:08;24.08;;;15.70;;
46355;SDS011;32066;49.474;11.106;2022-12-11T05:53:36;24.23;;;15.27;;
46355;SDS011;32066;49.474;11.106;2022-12-11T05:56:04;24.58;;;16.25;;
46355;SDS011;32066;49.474;11.106;2022-12-11T05:58:32;24.15;;;15.70;;
46355;SDS011;32066;49.474;11.106;2022-12-11T06:01:01;24.95;;;16.30;;
46355;SDS011;32066;49.474;11.106;2022-12-11T06:03:31;25.83;;;16.73;;
46355;SDS011;32066;49.474;11.106;2022-12-11T06:06:00;24.88;;;15.77;;
46355;SDS011;32066;49.474;11.106;2022-12-11T06:08:26;25.60;;;15.95;;
46355;SDS011;32066;49.474;11.106;2022-12-11T06:10:53;28.20;;;16.55;;
46355;SDS011;32066;49.474;11.106;2022-12-11T06:13:20;25.20;;;16.38;;
46355;SDS011;32066;49.474;11.106;2022-12-11T06:15:47;26.65;;;16.75;;
46355;SDS011;32066;49.474;11.106;2022-12-11T06:18:16;27.95;;;17.45;;
46355;SDS011;32066;49.474;11.106;2022-12-11T06:20:42;26.63;;;16.42;;
46355;SDS011;32066;49.474;11.106;2022-12-11T06:23:10;30.58;;;17.25;;
46355;SDS011;32066;49.474;11.106;2022-12-11T06:25:37;28.23;;;17.70;;
46355;SDS011;32066;49.474;11.106;2022-12-11T06:28:04;30.17;;;18.45;;
46355;SDS011;32066;49.474;11.106;2022-12-11T06:30:31;30.42;;;19.20;;
46355;SDS011;32066;49.474;11.106;2022-12-11T06:32:57;30.65;;;18.73;;
46355;SDS011;32066;49.474;11.106;2022-12-11T06:35:26;29.55;;;18.63;;
46355;SDS011;32066;49.474;11.106;2022-12-11T06:37:53;29.55;;;18.15;;
46355;SDS011;32066;49.474;11.106;2022-12-11T06:40:19;30.10;;;18.63;;
46355;SDS011;32066;49.474;11.106;2022-12-11T06:42:46;27.80;;;17.52;;
46355;SDS011;32066;49.474;11.106;2022-12-11T06:45:13;27.67;;;18.10;;
46355;SDS011;32066;49.474;11.106;2022-12-11T06:47:40;28.27;;;17.63;;
46355;SDS011;32066;49.474;11.106;2022-12-11T06:50:08;29.73;;;18.13;;
46355;SDS011;32066;49.474;11.106;2022-12-11T06:52:36;30.77;;;19.13;;
46355;SDS011;32066;49.474;11.106;2022-12-11T06:55:03;30.55;;;19.63;;
46355;SDS011;32066;49.474;11.106;2022-12-11T06:57:31;29.77;;;19.35;;
46355;SDS011;32066;49.474;11.106;2022-12-11T06:59:58;31.17;;;19.42;;
46355;SDS011;32066;49.474;11.106;2022-12-11T07:02:25;28.45;;;17.27;;
46355;SDS011;32066;49.474;11.106;2022-12-11T07:04:52;30.17;;;19.85;;
46355;SDS011;32066;49.474;11.106;2022-12-11T07:07:18;30.75;;;18.52;;
46355;SDS011;32066;49.474;11.106;2022-12-11T07:09:47;26.98;;;17.55;;
46355;SDS011;32066;49.474;11.106;2022-12-11T07:12:13;31.67;;;18.65;;
46355;SDS011;32066;49.474;11.106;2022-12-11T07:14:42;29.40;;;17.38;;
46355;SDS011;32066;49.474;11.106;2022-12-11T07:17:08;26.67;;;17.00;;
46355;SDS011;32066;49.474;11.106;2022-12-11T07:19:35;28.60;;;18.20;;
46355;SDS011;32066;49.474;11.106;2022-12-11T07:22:02;26.65;;;16.85;;
46355;SDS011;32066;49.474;11.106;2022-12-11T07:24:29;27.92;;;16.90;;
46355;SDS011;32066;49.474;11.106;2022-12-11T07:26:57;27.05;;;15.93;;
46355;SDS011;32066;49.474;11.106;2022-12-11T07:29:24;24.95;;;16.23;;
46355;SDS011;32066;49.474;11.106;2022-12-11T07:31:51;23.77;;;16.20;;
46355;SDS011;32066;49.474;11.106;2022-12-11T07:34:17;26.30;;;16.17;;
46355;SDS011;32066;49.474;11.106;2022-12-11T07:36:44;25.77;;;16.80;;
46355;SDS011;32066;49.474;11.106;2022-12-11T07:39:11;21.95;;;14.23;;
46355;SDS011;32066;49.474;11.106;2022-12-11T07:41:38;24.38;;;15.77;;
46355;SDS011;32066;49.474;11.106;2022-12-11T07:44:10;23.15;;;14.82;;
46355;SDS011;32066;49.474;11.106;2022-12-11T07:46:37;23.77;;;15.48;;
46355;SDS011;32066;49.474;11.106;2022-12-11T07:49:04;24.88;;;15.27;;
46355;SDS011;32066;49.474;11.106;2022-12-11T07:51:32;23.05;;;14.73;;
46355;SDS011;32066;49.474;11.106;2022-12-11T07:54:01;22.67;;;14.90;;
46355;SDS011;32066;49.474;11.106;2022-12-11T07:56:30;21.52;;;14.18;;
46355;SDS011;32066;49.474;11.106;2022-12-11T07:58:57;19.35;;;13.63;;
46355;SDS011;32066;49.474;11.106;2022-12-11T08:01:27;21.60;;;14.30;;
46355;SDS011;32066;49.474;11.106;2022-12-11T08:03:55;22.95;;;14.98;;
46355;SDS011;32066;49.474;11.106;2022-12-11T08:06:24;22.13;;;14.73;;
46355;SDS011;32066;49.474;11.106;2022-12-11T08:08:52;21.85;;;14.20;;
46355;SDS011;32066;49.474;11.106;2022-12-11T08:11:19;19.27;;;13.45;;
46355;SDS011;32066;49.474;11.106;2022-12-11T08:13:46;22.70;;;14.82;;
46355;SDS011;32066;49.474;11.106;2022-12-11T08:16:13;19.33;;;13.88;;
46355;SDS011;32066;49.474;11.106;2022-12-11T08:18:43;20.83;;;14.13;;
46355;SDS011;32066;49.474;11.106;2022-12-11T08:21:11;22.02;;;14.45;;
46355;SDS011;32066;49.474;11.106;2022-12-11T08:23:39;23.02;;;14.77;;
46355;SDS011;32066;49.474;11.106;2022-12-11T08:26:08;23.55;;;15.48;;
46355;SDS011;32066;49.474;11.106;2022-12-11T08:28:37;20.63;;;14.20;;
46355;SDS011;32066;49.474;11.106;2022-12-11T08:31:05;21.48;;;13.85;;
46355;SDS011;32066;49.474;11.106;2022-12-11T08:33:33;22.63;;;15.32;;
46355;SDS011;32066;49.474;11.106;2022-12-11T08:36:03;21.00;;;14.43;;
46355;SDS011;32066;49.474;11.106;2022-12-11T08:38:31;22.77;;;14.88;;
46355;SDS011;32066;49.474;11.106;2022-12-11T08:40:58;21.67;;;14.75;;
46355;SDS011;32066;49.474;11.106;2022-12-11T08:43:32;21.02;;;14.60;;
46355;SDS011;32066;49.474;11.106;2022-12-11T08:45:59;22.17;;;13.85;;
46355;SDS011;32066;49.474;11.106;2022-12-11T08:48:26;22.45;;;14.52;;
46355;SDS011;32066;49.474;11.106;2022-12-11T08:50:53;20.90;;;14.10;;
46355;SDS011;32066;49.474;11.106;2022-12-11T08:53:21;18.63;;;13.32;;
46355;SDS011;32066;49.474;11.106;2022-12-11T08:55:47;20.15;;;13.45;;
46355;SDS011;32066;49.474;11.106;2022-12-11T08:58:14;20.50;;;13.93;;
46355;SDS011;32066;49.474;11.106;2022-12-11T09:00:41;19.95;;;13.98;;
46355;SDS011;32066;49.474;11.106;2022-12-11T09:03:08;20.17;;;13.82;;
46355;SDS011;32066;49.474;11.106;2022-12-11T09:05:36;19.60;;;13.35;;
46355;SDS011;32066;49.474;11.106;2022-12-11T09:08:04;20.35;;;13.18;;
46355;SDS011;32066;49.474;11.106;2022-12-11T09:10:32;20.33;;;13.52;;
46355;SDS011;32066;49.474;11.106;2022-12-11T09:12:59;19.65;;;13.23;;
46355;SDS011;32066;49.474;11.106;2022-12-11T09:15:26;19.92;;;14.02;;
46355;SDS011;32066;49.474;11.106;2022-12-11T09:17:53;20.05;;;13.57;;
46355;SDS011;32066;49.474;11.106;2022-12-11T09:20:19;21.05;;;14.25;;
46355;SDS011;32066;49.474;11.106;2022-12-11T09:22:46;19.63;;;13.30;;
46355;SDS011;32066;49.474;11.106;2022-12-11T09:25:13;20.05;;;13.85;;
46355;SDS011;32066;49.474;11.106;2022-12-11T09:27:41;20.73;;;13.77;;
46355;SDS011;32066;49.474;11.106;2022-12-11T09:30:08;20.73;;;13.85;;
46355;SDS011;32066;49.474;11.106;2022-12-11T09:32:35;19.40;;;13.02;;
46355;SDS011;32066;49.474;11.106;2022-12-11T09:35:04;19.13;;;12.80;;
46355;SDS011;32066;49.474;11.106;2022-12-11T09:37:32;18.45;;;12.35;;
46355;SDS011;32066;49.474;11.106;2022-12-11T09:39:59;20.80;;;13.95;;
46355;SDS011;32066;49.474;11.106;2022-12-11T09:42:27;18.85;;;12.77;;
46355;SDS011;32066;49.474;11.106;2022-12-11T09:44:59;19.95;;;13.20;;
46355;SDS011;32066;49.474;11.106;2022-12-11T09:47:30;20.65;;;13.30;;
46355;SDS011;32066;49.474;11.106;2022-12-11T09:50:02;19.52;;;12.95;;
46355;SDS011;32066;49.474;11.106;2022-12-11T09:52:36;22.08;;;14.10;;
46355;SDS011;32066;49.474;11.106;2022-12-11T09:55:09;22.55;;;13.95;;
46355;SDS011;32066;49.474;11.106;2022-12-11T09:57:42;20.75;;;13.73;;
46355;SDS011;32066;49.474;11.106;2022-12-11T10:00:19;18.95;;;12.88;;
46355;SDS011;32066;49.474;11.106;2022-12-11T10:02:58;20.23;;;13.68;;
46355;SDS011;32066;49.474;11.106;2022-12-11T10:05:44;20.90;;;14.20;;
46355;SDS011;32066;49.474;11.106;2022-12-11T10:08:16;19.20;;;13.70;;
46355;SDS011;32066;49.474;11.106;2022-12-11T10:10:50;22.52;;;14.32;;
46355;SDS011;32066;49.474;11.106;2022-12-11T10:13:24;20.70;;;13.95;;
46355;SDS011;32066;49.474;11.106;2022-12-11T10:16:00;21.00;;;14.13;;
46355;SDS011;32066;49.474;11.106;2022-12-11T10:18:34;21.45;;;14.02;;
46355;SDS011;32066;49.474;11.106;2022-12-11T10:21:02;20.92;;;13.60;;
46355;SDS011;32066;49.474;11.106;2022-12-11T10:23:29;20.05;;;12.68;;
46355;SDS011;32066;49.474;11.106;2022-12-11T10:26:03;19.95;;;13.93;;
46355;SDS011;32066;49.474;11.106;2022-12-11T10:28:32;20.23;;;12.60;;
46355;SDS011;32066;49.474;11.106;2022-12-11T10:31:02;21.02;;;14.30;;
46355;SDS011;32066;49.474;11.106;2022-12-11T10:36:06;18.15;;;12.10;;
46355;SDS011;32066;49.474;11.106;2022-12-11T10:38:37;17.95;;;11.57;;
46355;SDS011;32066;49.474;11.106;2022-12-11T10:41:09;17.40;;;11.55;;
46355;SDS011;32066;49.474;11.106;2022-12-11T10:43:38;18.45;;;11.73;;
46355;SDS011;32066;49.474;11.106;2022-12-11T10:46:13;17.02;;;11.32;;
46355;SDS011;32066;49.474;11.106;2022-12-11T10:48:45;16.77;;;11.52;;
46355;SDS011;32066;49.474;11.106;2022-12-11T10:51:13;20.98;;;11.57;;
46355;SDS011;32066;49.474;11.106;2022-12-11T10:53:41;16.90;;;10.60;;
46355;SDS011;32066;49.474;11.106;2022-12-11T10:56:08;16.48;;;10.25;;
46355;SDS011;32066;49.474;11.106;2022-12-11T10:58:38;15.65;;;10.43;;
46355;SDS011;32066;49.474;11.106;2022-12-11T11:01:17;16.42;;;10.40;;
46355;SDS011;32066;49.474;11.106;2022-12-11T11:03:53;16.00;;;10.50;;
46355;SDS011;32066;49.474;11.106;2022-12-11T11:06:24;17.63;;;10.55;;
46355;SDS011;32066;49.474;11.106;2022-12-11T11:08:52;15.55;;;10.30;;
46355;SDS011;32066;49.474;11.106;2022-12-11T11:11:24;15.77;;;10.20;;
46355;SDS011;32066;49.474;11.106;2022-12-11T11:14:03;16.83;;;10.65;;
46355;SDS011;32066;49.474;11.106;2022-12-11T11:16:39;15.88;;;10.23;;
46355;SDS011;32066;49.474;11.106;2022-12-11T11:19:13;17.70;;;10.88;;
46355;SDS011;32066;49.474;11.106;2022-12-11T11:21:46;19.80;;;11.15;;
46355;SDS011;32066;49.474;11.106;2022-12-11T11:24:23;16.02;;;10.15;;
46355;SDS011;32066;49.474;11.106;2022-12-11T11:26:53;16.05;;;10.85;;
46355;SDS011;32066;49.474;11.106;2022-12-11T11:29:24;15.82;;;10.52;;
46355;SDS011;32066;49.474;11.106;2022-12-11T11:31:56;17.33;;;11.10;;
46355;SDS011;32066;49.474;11.106;2022-12-11T11:34:39;16.85;;;10.52;;
46355;SDS011;32066;49.474;11.106;2022-12-11T11:37:14;19.23;;;11.50;;
46355;SDS011;32066;49.474;11.106;2022-12-11T11:39:50;18.48;;;11.23;;
46355;SDS011;32066;49.474;11.106;2022-12-11T11:42:24;22.10;;;12.48;;
46355;SDS011;32066;49.474;11.106;2022-12-11T11:44:58;22.57;;;12.20;;
46355;SDS011;32066;49.474;11.106;2022-12-11T11:47:33;18.38;;;11.23;;
46355;SDS011;32066;49.474;11.106;2022-12-11T11:50:06;20.63;;;12.03;;
46355;SDS011;32066;49.474;11.106;2022-12-11T11:52:40;22.10;;;11.82;;
46355;SDS011;32066;49.474;11.106;2022-12-11T11:55:13;20.08;;;11.73;;
46355;SDS011;32066;49.474;11.106;2022-12-11T11:57:44;18.00;;;11.38;;
46355;SDS011;32066;49.474;11.106;2022-12-11T12:00:19;18.60;;;11.38;;
46355;SDS011;32066;49.474;11.106;2022-12-11T12:02:49;21.77;;;12.20;;
46355;SDS011;32066;49.474;11.106;2022-12-11T12:05:21;19.30;;;11.70;;
46355;SDS011;32066;49.474;11.106;2022-12-11T12:07:55;16.65;;;10.38;;
46355;SDS011;32066;49.474;11.106;2022-12-11T12:10:30;18.67;;;10.43;;
46355;SDS011;32066;49.474;11.106;2022-12-11T12:13:05;15.60;;;9.37;;
46355;SDS011;32066;49.474;11.106;2022-12-11T12:15:37;15.60;;;10.32;;
46355;SDS011;32066;49.474;11.106;2022-12-11T12:18:14;17.10;;;9.82;;
46355;SDS011;32066;49.474;11.106;2022-12-11T12:20:51;15.48;;;9.40;;
46355;SDS011;32066;49.474;11.106;2022-12-11T12:23:32;16.83;;;10.18;;
46355;SDS011;32066;49.474;11.106;2022-12-11T12:26:14;13.65;;;9.63;;
46355;SDS011;32066;49.474;11.106;2022-12-11T12:28:50;16.38;;;9.90;;
46355;SDS011;32066;49.474;11.106;2022-12-11T12:31:29;15.13;;;9.45;;
46355;SDS011;32066;49.474;11.106;2022-12-11T12:34:12;15.27;;;9.57;;
46355;SDS011;32066;49.474;11.106;2022-12-11T12:36:49;14.50;;;9.55;;
46355;SDS011;32066;49.474;11.106;2022-12-11T12:39:27;15.95;;;9.45;;
46355;SDS011;32066;49.474;11.106;2022-12-11T12:42:03;16.55;;;9.98;;
46355;SDS011;32066;49.474;11.106;2022-12-11T12:44:37;14.85;;;10.13;;
46355;SDS011;32066;49.474;11.106;2022-12-11T12:47:11;17.23;;;9.88;;
46355;SDS011;32066;49.474;11.106;2022-12-11T12:49:42;14.98;;;9.60;;
46355;SDS011;32066;49.474;11.106;2022-12-11T12:52:12;14.68;;;9.50;;
46355;SDS011;32066;49.474;11.106;2022-12-11T12:54:42;15.35;;;9.75;;
46355;SDS011;32066;49.474;11.106;2022-12-11T12:57:32;17.45;;;10.82;;
46355;SDS011;32066;49.474;11.106;2022-12-11T13:00:00;15.73;;;10.25;;
46355;SDS011;32066;49.474;11.106;2022-12-11T13:02:28;16.45;;;9.82;;
46355;SDS011;32066;49.474;11.106;2022-12-11T13:04:57;15.23;;;10.23;;
46355;SDS011;32066;49.474;11.106;2022-12-11T13:07:26;15.95;;;9.93;;
46355;SDS011;32066;49.474;11.106;2022-12-11T13:09:55;14.98;;;9.45;;
46355;SDS011;32066;49.474;11.106;2022-12-11T13:12:30;12.95;;;8.60;;
46355;SDS011;32066;49.474;11.106;2022-12-11T13:14:59;12.98;;;8.20;;
46355;SDS011;32066;49.474;11.106;2022-12-11T13:17:34;12.45;;;8.07;;
46355;SDS011;32066;49.474;11.106;2022-12-11T13:22:47;12.90;;;8.45;;
46355;SDS011;32066;49.474;11.106;2022-12-11T13:25:30;13.73;;;8.52;;
46355;SDS011;32066;49.474;11.106;2022-12-11T13:28:05;13.52;;;8.70;;
46355;SDS011;32066;49.474;11.106;2022-12-11T13:30:32;13.10;;;8.15;;
46355;SDS011;32066;49.474;11.106;2022-12-11T13:33:01;13.25;;;8.40;;
46355;SDS011;32066;49.474;11.106;2022-12-11T13:35:32;13.25;;;8.40;;
46355;SDS011;32066;49.474;11.106;2022-12-11T13:38:02;13.88;;;8.45;;
46355;SDS011;32066;49.474;11.106;2022-12-11T13:40:35;14.25;;;9.43;;
46355;SDS011;32066;49.474;11.106;2022-12-11T13:43:04;12.60;;;8.10;;
46355;SDS011;32066;49.474;11.106;2022-12-11T13:45:36;12.60;;;8.20;;
46355;SDS011;32066;49.474;11.106;2022-12-11T13:48:10;11.88;;;7.57;;
46355;SDS011;32066;49.474;11.106;2022-12-11T13:50:44;12.95;;;7.95;;
46355;SDS011;32066;49.474;11.106;2022-12-11T13:53:13;12.52;;;7.78;;
46355;SDS011;32066;49.474;11.106;2022-12-11T13:55:42;12.93;;;8.00;;
46355;SDS011;32066;49.474;11.106;2022-12-11T13:58:14;12.13;;;7.63;;
46355;SDS011;32066;49.474;11.106;2022-12-11T14:00:42;12.77;;;7.72;;
46355;SDS011;32066;49.474;11.106;2022-12-11T14:03:22;12.48;;;7.60;;
46355;SDS011;32066;49.474;11.106;2022-12-11T14:05:51;11.15;;;7.63;;
46355;SDS011;32066;49.474;11.106;2022-12-11T14:08:19;11.93;;;7.80;;
46355;SDS011;32066;49.474;11.106;2022-12-11T14:10:50;12.82;;;7.55;;
46355;SDS011;32066;49.474;11.106;2022-12-11T14:13:20;13.07;;;7.53;;
46355;SDS011;32066;49.474;11.106;2022-12-11T14:15:49;11.82;;;7.53;;
46355;SDS011;32066;49.474;11.106;2022-12-11T14:18:16;13.15;;;7.78;;
46355;SDS011;32066;49.474;11.106;2022-12-11T14:20:53;12.07;;;7.57;;
46355;SDS011;32066;49.474;11.106;2022-12-11T14:23:21;12.05;;;7.40;;
46355;SDS011;32066;49.474;11.106;2022-12-11T14:25:53;10.75;;;7.05;;
46355;SDS011;32066;49.474;11.106;2022-12-11T14:28:21;12.38;;;7.57;;
46355;SDS011;32066;49.474;11.106;2022-12-11T14:30:52;12.57;;;7.57;;
46355;SDS011;32066;49.474;11.106;2022-12-11T14:33:22;13.23;;;8.02;;